sensor_id;sensor_type;location;lat;lon;timestamp;temperature;humidity
10802;DHT22;5453;50.852;7.102;2023-01-31T00:00:01;6.40;99.90
10802;DHT22;5453;50.852;7.102;2023-01-31T00:02:37;6.40;99.90
10802;DHT22;5453;50.852;7.102;2023-01-31T00:05:09;6.40;99.90
10802;DHT22;5453;50.852;7.102;2023-01-31T00:07:41;6.40;99.90
10802;DHT22;5453;50.852;7.102;2023-01-31T00:10:13;6.40;99.90
10802;DHT22;5453;50.852;7.102;2023-01-31T00:12:45;6.40;99.90
10802;DHT22;5453;50.852;7.102;2023-01-31T00:15:19;6.40;99.90
10802;DHT22;5453;50.852;7.102;2023-01-31T00:17:51;6.40;99.90
10802;DHT22;5453;50.852;7.102;2023-01-31T00:20:23;6.40;99.90
10802;DHT22;5453;50.852;7.102;2023-01-31T00:22:55;6.40;99.90
10802;DHT22;5453;50.852;7.102;2023-01-31T00:25:29;6.40;99.90
10802;DHT22;5453;50.852;7.102;2023-01-31T00:28:01;6.40;99.90
10802;DHT22;5453;50.852;7.102;2023-01-31T00:30:34;6.40;99.90
10802;DHT22;5453;50.852;7.102;2023-01-31T00:33:06;6.40;99.90
10802;DHT22;5453;50.852;7.102;2023-01-31T00:35:39;6.40;99.90
10802;DHT22;5453;50.852;7.102;2023-01-31T00:38:11;6.40;99.90
10802;DHT22;5453;50.852;7.102;2023-01-31T00:40:50;6.40;99.90
10802;DHT22;5453;50.852;7.102;2023-01-31T00:43:23;6.40;99.90
10802;DHT22;5453;50.852;7.102;2023-01-31T00:45:57;6.40;99.90
10802;DHT22;5453;50.852;7.102;2023-01-31T00:48:30;6.40;99.90
10802;DHT22;5453;50.852;7.102;2023-01-31T00:51:04;6.40;99.90
10802;DHT22;5453;50.852;7.102;2023-01-31T00:53:36;6.40;99.90
10802;DHT22;5453;50.852;7.102;2023-01-31T00:56:10;6.40;99.90
10802;DHT22;5453;50.852;7.102;2023-01-31T00:58:43;6.50;99.90
10802;DHT22;5453;50.852;7.102;2023-01-31T01:01:19;6.50;99.90
10802;DHT22;5453;50.852;7.102;2023-01-31T01:03:55;6.50;99.90
10802;DHT22;5453;50.852;7.102;2023-01-31T01:06:29;6.50;99.90
10802;DHT22;5453;50.852;7.102;2023-01-31T01:09:01;6.50;99.90
10802;DHT22;5453;50.852;7.102;2023-01-31T01:11:34;6.50;99.90
10802;DHT22;5453;50.852;7.102;2023-01-31T01:14:06;6.50;99.90
10802;DHT22;5453;50.852;7.102;2023-01-31T01:16:39;6.50;99.90
10802;DHT22;5453;50.852;7.102;2023-01-31T01:19:16;6.50;99.90
10802;DHT22;5453;50.852;7.102;2023-01-31T01:21:53;6.50;99.90
10802;DHT22;5453;50.852;7.102;2023-01-31T01:24:26;6.40;99.90
10802;DHT22;5453;50.852;7.102;2023-01-31T01:27:00;6.40;99.90
10802;DHT22;5453;50.852;7.102;2023-01-31T01:29:35;6.40;99.90
10802;DHT22;5453;50.852;7.102;2023-01-31T01:32:10;6.40;99.90
10802;DHT22;5453;50.852;7.102;2023-01-31T01:34:42;6.40;99.90
10802;DHT22;5453;50.852;7.102;2023-01-31T01:37:15;6.30;99.90
10802;DHT22;5453;50.852;7.102;2023-01-31T01:39:51;6.30;99.90
10802;DHT22;5453;50.852;7.102;2023-01-31T01:42:25;6.30;99.90
10802;DHT22;5453;50.852;7.102;2023-01-31T01:44:59;6.30;99.90
10802;DHT22;5453;50.852;7.102;2023-01-31T01:47:37;6.30;99.90
10802;DHT22;5453;50.852;7.102;2023-01-31T01:50:18;6.30;99.90
10802;DHT22;5453;50.852;7.102;2023-01-31T01:52:57;6.30;99.90
10802;DHT22;5453;50.852;7.102;2023-01-31T01:55:34;6.30;99.90
10802;DHT22;5453;50.852;7.102;2023-01-31T01:58:15;6.30;99.90
10802;DHT22;5453;50.852;7.102;2023-01-31T02:00:50;6.20;99.90
10802;DHT22;5453;50.852;7.102;2023-01-31T02:03:25;6.20;99.90
10802;DHT22;5453;50.852;7.102;2023-01-31T02:06:00;6.20;99.90
10802;DHT22;5453;50.852;7.102;2023-01-31T02:08:35;6.20;99.90
10802;DHT22;5453;50.852;7.102;2023-01-31T02:11:10;6.20;99.90
10802;DHT22;5453;50.852;7.102;2023-01-31T02:13:47;6.20;99.90
10802;DHT22;5453;50.852;7.102;2023-01-31T02:16:21;6.20;99.90
10802;DHT22;5453;50.852;7.102;2023-01-31T02:18:56;6.20;99.90
10802;DHT22;5453;50.852;7.102;2023-01-31T02:21:58;6.20;99.90
10802;DHT22;5453;50.852;7.102;2023-01-31T02:31:41;6.10;99.90
10802;DHT22;5453;50.852;7.102;2023-01-31T02:34:37;6.10;99.90
10802;DHT22;5453;50.852;7.102;2023-01-31T02:37:20;6.10;99.90
10802;DHT22;5453;50.852;7.102;2023-01-31T02:40:04;6.10;99.90
10802;DHT22;5453;50.852;7.102;2023-01-31T02:42:46;6.10;99.90
10802;DHT22;5453;50.852;7.102;2023-01-31T02:45:28;6.10;99.90
10802;DHT22;5453;50.852;7.102;2023-01-31T02:48:13;6.00;99.90
10802;DHT22;5453;50.852;7.102;2023-01-31T02:51:01;6.00;99.90
10802;DHT22;5453;50.852;7.102;2023-01-31T02:53:41;6.00;99.90
10802;DHT22;5453;50.852;7.102;2023-01-31T02:56:19;6.00;99.90
10802;DHT22;5453;50.852;7.102;2023-01-31T02:58:58;5.90;99.90
10802;DHT22;5453;50.852;7.102;2023-01-31T03:01:35;5.90;99.90
10802;DHT22;5453;50.852;7.102;2023-01-31T03:04:11;5.90;99.90
10802;DHT22;5453;50.852;7.102;2023-01-31T03:06:51;5.90;99.90
10802;DHT22;5453;50.852;7.102;2023-01-31T03:09:36;5.90;99.90
10802;DHT22;5453;50.852;7.102;2023-01-31T03:12:39;5.90;99.90
10802;DHT22;5453;50.852;7.102;2023-01-31T03:15:45;5.90;99.90
10802;DHT22;5453;50.852;7.102;2023-01-31T03:18:48;5.90;99.90
10802;DHT22;5453;50.852;7.102;2023-01-31T03:21:25;5.80;99.90
10802;DHT22;5453;50.852;7.102;2023-01-31T03:24:04;5.80;99.90
10802;DHT22;5453;50.852;7.102;2023-01-31T03:26:37;5.80;99.90
10802;DHT22;5453;50.852;7.102;2023-01-31T03:29:13;5.70;99.90
10802;DHT22;5453;50.852;7.102;2023-01-31T03:31:52;5.70;99.90
10802;DHT22;5453;50.852;7.102;2023-01-31T03:34:28;5.60;99.90
10802;DHT22;5453;50.852;7.102;2023-01-31T03:37:04;5.60;99.90
10802;DHT22;5453;50.852;7.102;2023-01-31T03:39:52;5.50;99.90
10802;DHT22;5453;50.852;7.102;2023-01-31T03:42:44;5.50;99.90
10802;DHT22;5453;50.852;7.102;2023-01-31T03:45:28;5.50;99.90
10802;DHT22;5453;50.852;7.102;2023-01-31T03:48:05;5.40;99.90
10802;DHT22;5453;50.852;7.102;2023-01-31T03:50:48;5.40;99.90
10802;DHT22;5453;50.852;7.102;2023-01-31T03:53:28;5.40;99.90
10802;DHT22;5453;50.852;7.102;2023-01-31T03:56:09;5.40;99.90
10802;DHT22;5453;50.852;7.102;2023-01-31T03:58:48;5.30;99.90
10802;DHT22;5453;50.852;7.102;2023-01-31T04:01:27;5.30;99.90
10802;DHT22;5453;50.852;7.102;2023-01-31T04:04:03;5.30;99.90
10802;DHT22;5453;50.852;7.102;2023-01-31T04:06:38;5.30;99.90
10802;DHT22;5453;50.852;7.102;2023-01-31T04:09:12;5.30;99.90
10802;DHT22;5453;50.852;7.102;2023-01-31T04:11:48;5.30;99.90
10802;DHT22;5453;50.852;7.102;2023-01-31T04:14:21;5.30;99.90
10802;DHT22;5453;50.852;7.102;2023-01-31T04:16:54;5.30;99.90
10802;DHT22;5453;50.852;7.102;2023-01-31T04:19:26;5.20;99.90
10802;DHT22;5453;50.852;7.102;2023-01-31T04:21:58;5.20;99.90
10802;DHT22;5453;50.852;7.102;2023-01-31T04:24:31;5.20;99.90
10802;DHT22;5453;50.852;7.102;2023-01-31T04:27:04;5.10;99.90
10802;DHT22;5453;50.852;7.102;2023-01-31T04:29:38;5.10;99.90
10802;DHT22;5453;50.852;7.102;2023-01-31T04:32:10;5.10;99.90
10802;DHT22;5453;50.852;7.102;2023-01-31T04:34:43;5.10;99.90
10802;DHT22;5453;50.852;7.102;2023-01-31T04:37:15;5.00;99.90
10802;DHT22;5453;50.852;7.102;2023-01-31T04:39:48;5.10;99.90
10802;DHT22;5453;50.852;7.102;2023-01-31T04:42:22;5.10;99.90
10802;DHT22;5453;50.852;7.102;2023-01-31T04:44:54;5.00;99.90
10802;DHT22;5453;50.852;7.102;2023-01-31T04:47:26;5.10;99.90
10802;DHT22;5453;50.852;7.102;2023-01-31T04:49:58;5.00;99.90
10802;DHT22;5453;50.852;7.102;2023-01-31T04:52:30;5.00;99.90
10802;DHT22;5453;50.852;7.102;2023-01-31T04:55:02;5.00;99.90
10802;DHT22;5453;50.852;7.102;2023-01-31T04:57:35;4.90;99.90
10802;DHT22;5453;50.852;7.102;2023-01-31T05:00:08;4.90;99.90
10802;DHT22;5453;50.852;7.102;2023-01-31T05:02:41;4.90;99.90
10802;DHT22;5453;50.852;7.102;2023-01-31T05:05:13;4.90;99.90
10802;DHT22;5453;50.852;7.102;2023-01-31T05:07:45;4.80;99.90
10802;DHT22;5453;50.852;7.102;2023-01-31T05:10:18;4.80;99.90
10802;DHT22;5453;50.852;7.102;2023-01-31T05:12:51;4.70;99.90
10802;DHT22;5453;50.852;7.102;2023-01-31T05:15:23;4.70;99.90
10802;DHT22;5453;50.852;7.102;2023-01-31T05:17:56;4.60;99.90
10802;DHT22;5453;50.852;7.102;2023-01-31T05:20:34;4.60;99.90
10802;DHT22;5453;50.852;7.102;2023-01-31T05:23:09;4.60;99.90
10802;DHT22;5453;50.852;7.102;2023-01-31T05:25:43;4.60;99.90
10802;DHT22;5453;50.852;7.102;2023-01-31T05:28:17;4.50;99.90
10802;DHT22;5453;50.852;7.102;2023-01-31T05:30:49;4.50;99.90
10802;DHT22;5453;50.852;7.102;2023-01-31T05:33:21;4.40;99.90
10802;DHT22;5453;50.852;7.102;2023-01-31T05:35:53;4.40;99.90
10802;DHT22;5453;50.852;7.102;2023-01-31T05:38:25;4.30;99.90
10802;DHT22;5453;50.852;7.102;2023-01-31T05:40:57;4.30;99.90
10802;DHT22;5453;50.852;7.102;2023-01-31T05:43:30;4.20;99.90
10802;DHT22;5453;50.852;7.102;2023-01-31T05:46:03;4.20;99.90
10802;DHT22;5453;50.852;7.102;2023-01-31T05:48:35;4.20;99.90
10802;DHT22;5453;50.852;7.102;2023-01-31T05:51:07;4.20;99.90
10802;DHT22;5453;50.852;7.102;2023-01-31T05:53:39;4.20;99.90
10802;DHT22;5453;50.852;7.102;2023-01-31T05:56:11;4.20;99.90
10802;DHT22;5453;50.852;7.102;2023-01-31T05:58:44;4.20;99.90
10802;DHT22;5453;50.852;7.102;2023-01-31T06:01:21;4.20;99.90
10802;DHT22;5453;50.852;7.102;2023-01-31T06:03:55;4.30;99.90
10802;DHT22;5453;50.852;7.102;2023-01-31T06:06:27;4.30;99.90
10802;DHT22;5453;50.852;7.102;2023-01-31T06:08:59;4.40;99.90
10802;DHT22;5453;50.852;7.102;2023-01-31T06:11:32;4.40;99.90
10802;DHT22;5453;50.852;7.102;2023-01-31T06:14:06;4.40;99.90
10802;DHT22;5453;50.852;7.102;2023-01-31T06:16:38;4.40;99.90
10802;DHT22;5453;50.852;7.102;2023-01-31T06:19:10;4.40;99.90
10802;DHT22;5453;50.852;7.102;2023-01-31T06:21:42;4.40;99.90
10802;DHT22;5453;50.852;7.102;2023-01-31T06:24:14;4.50;99.90
10802;DHT22;5453;50.852;7.102;2023-01-31T06:26:46;4.50;99.90
10802;DHT22;5453;50.852;7.102;2023-01-31T06:29:20;4.40;99.90
10802;DHT22;5453;50.852;7.102;2023-01-31T06:31:52;4.40;99.90
10802;DHT22;5453;50.852;7.102;2023-01-31T06:34:24;4.40;99.90
10802;DHT22;5453;50.852;7.102;2023-01-31T06:36:56;4.40;99.90
10802;DHT22;5453;50.852;7.102;2023-01-31T06:39:28;4.40;99.90
10802;DHT22;5453;50.852;7.102;2023-01-31T06:42:00;4.50;99.90
10802;DHT22;5453;50.852;7.102;2023-01-31T06:44:34;4.40;99.90
10802;DHT22;5453;50.852;7.102;2023-01-31T06:47:07;4.50;99.90
10802;DHT22;5453;50.852;7.102;2023-01-31T06:49:39;4.50;99.90
10802;DHT22;5453;50.852;7.102;2023-01-31T06:52:11;4.60;99.90
10802;DHT22;5453;50.852;7.102;2023-01-31T06:54:43;4.50;99.90
10802;DHT22;5453;50.852;7.102;2023-01-31T06:57:15;4.60;99.90
10802;DHT22;5453;50.852;7.102;2023-01-31T06:59:49;4.60;99.90
10802;DHT22;5453;50.852;7.102;2023-01-31T07:02:24;4.70;99.90
10802;DHT22;5453;50.852;7.102;2023-01-31T07:04:57;4.80;99.90
10802;DHT22;5453;50.852;7.102;2023-01-31T07:07:29;4.80;99.90
10802;DHT22;5453;50.852;7.102;2023-01-31T07:10:01;4.80;99.90
10802;DHT22;5453;50.852;7.102;2023-01-31T07:12:33;4.90;99.90
10802;DHT22;5453;50.852;7.102;2023-01-31T07:15:08;4.90;99.90
10802;DHT22;5453;50.852;7.102;2023-01-31T07:17:40;5.00;99.90
10802;DHT22;5453;50.852;7.102;2023-01-31T07:20:13;5.00;99.90
10802;DHT22;5453;50.852;7.102;2023-01-31T07:22:53;5.00;99.90
10802;DHT22;5453;50.852;7.102;2023-01-31T07:25:26;5.10;99.90
10802;DHT22;5453;50.852;7.102;2023-01-31T07:28:01;5.10;99.90
10802;DHT22;5453;50.852;7.102;2023-01-31T07:30:35;5.10;99.90
10802;DHT22;5453;50.852;7.102;2023-01-31T07:33:07;5.20;99.90
10802;DHT22;5453;50.852;7.102;2023-01-31T07:35:40;5.20;99.90
10802;DHT22;5453;50.852;7.102;2023-01-31T07:38:13;5.20;99.90
10802;DHT22;5453;50.852;7.102;2023-01-31T07:40:45;5.20;99.90
10802;DHT22;5453;50.852;7.102;2023-01-31T07:43:17;5.30;99.90
10802;DHT22;5453;50.852;7.102;2023-01-31T07:45:51;5.30;99.90
10802;DHT22;5453;50.852;7.102;2023-01-31T07:48:24;5.40;99.90
10802;DHT22;5453;50.852;7.102;2023-01-31T07:50:58;5.40;99.90
10802;DHT22;5453;50.852;7.102;2023-01-31T07:53:33;5.40;99.90
10802;DHT22;5453;50.852;7.102;2023-01-31T07:56:12;5.40;99.90
10802;DHT22;5453;50.852;7.102;2023-01-31T07:58:47;5.50;99.90
10802;DHT22;5453;50.852;7.102;2023-01-31T08:01:22;5.50;99.90
10802;DHT22;5453;50.852;7.102;2023-01-31T08:04:18;5.60;99.90
10802;DHT22;5453;50.852;7.102;2023-01-31T08:06:53;5.60;99.90
10802;DHT22;5453;50.852;7.102;2023-01-31T08:09:26;5.60;99.90
10802;DHT22;5453;50.852;7.102;2023-01-31T08:11:58;5.60;99.90
10802;DHT22;5453;50.852;7.102;2023-01-31T08:14:30;5.70;99.90
10802;DHT22;5453;50.852;7.102;2023-01-31T08:17:04;5.70;99.90
10802;DHT22;5453;50.852;7.102;2023-01-31T08:19:37;5.80;99.90
10802;DHT22;5453;50.852;7.102;2023-01-31T08:22:09;6.00;99.90
10802;DHT22;5453;50.852;7.102;2023-01-31T08:24:41;6.10;99.90
10802;DHT22;5453;50.852;7.102;2023-01-31T08:27:14;6.30;99.90
10802;DHT22;5453;50.852;7.102;2023-01-31T08:29:46;6.30;99.90
10802;DHT22;5453;50.852;7.102;2023-01-31T08:32:19;6.40;99.90
10802;DHT22;5453;50.852;7.102;2023-01-31T08:34:51;6.40;99.90
10802;DHT22;5453;50.852;7.102;2023-01-31T08:37:23;6.40;99.90
10802;DHT22;5453;50.852;7.102;2023-01-31T08:39:55;6.30;99.90
10802;DHT22;5453;50.852;7.102;2023-01-31T08:42:28;6.30;99.90
10802;DHT22;5453;50.852;7.102;2023-01-31T08:45:00;6.30;99.90
10802;DHT22;5453;50.852;7.102;2023-01-31T08:47:33;6.40;99.90
10802;DHT22;5453;50.852;7.102;2023-01-31T08:50:06;6.40;99.90
10802;DHT22;5453;50.852;7.102;2023-01-31T08:52:39;6.40;99.90
10802;DHT22;5453;50.852;7.102;2023-01-31T08:55:11;6.40;99.90
10802;DHT22;5453;50.852;7.102;2023-01-31T08:57:43;6.40;99.90
10802;DHT22;5453;50.852;7.102;2023-01-31T09:00:17;6.40;99.90
10802;DHT22;5453;50.852;7.102;2023-01-31T09:02:52;6.40;99.90
10802;DHT22;5453;50.852;7.102;2023-01-31T09:05:26;6.40;99.90
10802;DHT22;5453;50.852;7.102;2023-01-31T09:08:00;6.40;99.90
10802;DHT22;5453;50.852;7.102;2023-01-31T09:10:32;6.40;99.90
10802;DHT22;5453;50.852;7.102;2023-01-31T09:13:04;6.40;99.90
10802;DHT22;5453;50.852;7.102;2023-01-31T09:15:36;6.40;99.90
10802;DHT22;5453;50.852;7.102;2023-01-31T09:18:10;6.40;99.90
10802;DHT22;5453;50.852;7.102;2023-01-31T09:20:42;6.50;99.90
10802;DHT22;5453;50.852;7.102;2023-01-31T09:23:14;6.50;99.90
10802;DHT22;5453;50.852;7.102;2023-01-31T09:25:51;6.50;99.90
10802;DHT22;5453;50.852;7.102;2023-01-31T09:28:24;6.50;99.90
10802;DHT22;5453;50.852;7.102;2023-01-31T09:31:01;6.50;99.90
10802;DHT22;5453;50.852;7.102;2023-01-31T09:33:35;6.50;99.90
10802;DHT22;5453;50.852;7.102;2023-01-31T09:36:09;6.50;99.90
10802;DHT22;5453;50.852;7.102;2023-01-31T09:38:42;6.60;99.90
10802;DHT22;5453;50.852;7.102;2023-01-31T09:41:22;6.60;99.90
10802;DHT22;5453;50.852;7.102;2023-01-31T09:43:59;6.60;99.90
10802;DHT22;5453;50.852;7.102;2023-01-31T09:46:36;6.60;99.90
10802;DHT22;5453;50.852;7.102;2023-01-31T09:49:15;6.60;99.90
10802;DHT22;5453;50.852;7.102;2023-01-31T09:51:54;6.60;99.90
10802;DHT22;5453;50.852;7.102;2023-01-31T09:54:33;6.70;99.90
10802;DHT22;5453;50.852;7.102;2023-01-31T09:57:18;6.70;99.90
10802;DHT22;5453;50.852;7.102;2023-01-31T10:00:05;6.70;99.90
10802;DHT22;5453;50.852;7.102;2023-01-31T10:06:05;6.80;99.90
10802;DHT22;5453;50.852;7.102;2023-01-31T10:08:47;6.80;99.90
10802;DHT22;5453;50.852;7.102;2023-01-31T10:11:29;6.90;99.90
10802;DHT22;5453;50.852;7.102;2023-01-31T10:14:10;6.90;99.90
10802;DHT22;5453;50.852;7.102;2023-01-31T10:16:59;6.90;99.90
10802;DHT22;5453;50.852;7.102;2023-01-31T10:19:41;7.00;99.90
10802;DHT22;5453;50.852;7.102;2023-01-31T10:22:20;7.00;99.90
10802;DHT22;5453;50.852;7.102;2023-01-31T10:24:57;7.00;99.90
10802;DHT22;5453;50.852;7.102;2023-01-31T10:27:41;7.00;99.90
10802;DHT22;5453;50.852;7.102;2023-01-31T10:30:17;7.10;99.90
10802;DHT22;5453;50.852;7.102;2023-01-31T10:32:57;7.10;99.90
10802;DHT22;5453;50.852;7.102;2023-01-31T10:35:36;7.10;99.90
10802;DHT22;5453;50.852;7.102;2023-01-31T10:38:14;7.10;99.90
10802;DHT22;5453;50.852;7.102;2023-01-31T10:40:53;7.10;99.90
10802;DHT22;5453;50.852;7.102;2023-01-31T10:43:35;7.10;99.90
10802;DHT22;5453;50.852;7.102;2023-01-31T10:46:11;7.20;99.90
10802;DHT22;5453;50.852;7.102;2023-01-31T10:48:46;7.20;99.90
10802;DHT22;5453;50.852;7.102;2023-01-31T10:51:29;7.20;99.90
10802;DHT22;5453;50.852;7.102;2023-01-31T10:54:22;7.30;99.90
10802;DHT22;5453;50.852;7.102;2023-01-31T10:57:01;7.30;99.90
10802;DHT22;5453;50.852;7.102;2023-01-31T10:59:36;7.30;99.90
10802;DHT22;5453;50.852;7.102;2023-01-31T11:02:17;7.30;99.90
10802;DHT22;5453;50.852;7.102;2023-01-31T11:04:53;7.40;99.90
10802;DHT22;5453;50.852;7.102;2023-01-31T11:07:28;7.40;99.90
10802;DHT22;5453;50.852;7.102;2023-01-31T11:10:20;7.40;99.90
10802;DHT22;5453;50.852;7.102;2023-01-31T11:12:55;7.40;99.90
10802;DHT22;5453;50.852;7.102;2023-01-31T11:15:34;7.40;99.90
10802;DHT22;5453;50.852;7.102;2023-01-31T11:18:13;7.40;99.90
10802;DHT22;5453;50.852;7.102;2023-01-31T11:20:57;7.50;99.90
10802;DHT22;5453;50.852;7.102;2023-01-31T11:23:33;7.50;99.90
10802;DHT22;5453;50.852;7.102;2023-01-31T11:26:08;7.50;99.90
10802;DHT22;5453;50.852;7.102;2023-01-31T11:28:49;7.50;99.90
10802;DHT22;5453;50.852;7.102;2023-01-31T11:31:28;7.50;99.90
10802;DHT22;5453;50.852;7.102;2023-01-31T11:34:19;7.50;99.90
10802;DHT22;5453;50.852;7.102;2023-01-31T11:37:03;7.50;99.90
10802;DHT22;5453;50.852;7.102;2023-01-31T11:39:37;7.50;99.90
10802;DHT22;5453;50.852;7.102;2023-01-31T11:42:13;7.60;99.90
10802;DHT22;5453;50.852;7.102;2023-01-31T11:44:54;7.60;99.90
10802;DHT22;5453;50.852;7.102;2023-01-31T11:47:33;7.60;99.90
10802;DHT22;5453;50.852;7.102;2023-01-31T11:50:19;7.60;99.90
10802;DHT22;5453;50.852;7.102;2023-01-31T11:52:54;7.60;99.90
10802;DHT22;5453;50.852;7.102;2023-01-31T11:55:36;7.60;99.90
10802;DHT22;5453;50.852;7.102;2023-01-31T11:58:16;7.60;99.90
10802;DHT22;5453;50.852;7.102;2023-01-31T12:00:53;7.70;99.90
10802;DHT22;5453;50.852;7.102;2023-01-31T12:03:28;7.70;99.90
10802;DHT22;5453;50.852;7.102;2023-01-31T12:06:04;7.70;99.90
10802;DHT22;5453;50.852;7.102;2023-01-31T12:08:40;7.70;99.90
10802;DHT22;5453;50.852;7.102;2023-01-31T12:11:26;7.80;99.90
10802;DHT22;5453;50.852;7.102;2023-01-31T12:14:10;7.80;99.90
10802;DHT22;5453;50.852;7.102;2023-01-31T12:16:47;7.80;99.90
10802;DHT22;5453;50.852;7.102;2023-01-31T12:19:29;7.80;99.90
10802;DHT22;5453;50.852;7.102;2023-01-31T12:22:21;7.80;99.90
10802;DHT22;5453;50.852;7.102;2023-01-31T12:25:07;7.90;99.90
10802;DHT22;5453;50.852;7.102;2023-01-31T12:27:54;7.90;99.90
10802;DHT22;5453;50.852;7.102;2023-01-31T12:30:55;7.90;99.90
10802;DHT22;5453;50.852;7.102;2023-01-31T12:33:47;7.80;99.90
10802;DHT22;5453;50.852;7.102;2023-01-31T12:36:39;7.90;99.90
10802;DHT22;5453;50.852;7.102;2023-01-31T12:39:34;7.90;99.90
10802;DHT22;5453;50.852;7.102;2023-01-31T12:42:24;7.90;99.90
10802;DHT22;5453;50.852;7.102;2023-01-31T12:45:20;8.00;99.90
10802;DHT22;5453;50.852;7.102;2023-01-31T12:48:32;8.80;99.90
10802;DHT22;5453;50.852;7.102;2023-01-31T12:51:24;9.00;99.90
10802;DHT22;5453;50.852;7.102;2023-01-31T12:54:19;8.90;99.90
10802;DHT22;5453;50.852;7.102;2023-01-31T12:57:12;8.80;99.90
10802;DHT22;5453;50.852;7.102;2023-01-31T13:00:02;8.70;99.90
10802;DHT22;5453;50.852;7.102;2023-01-31T13:02:49;8.60;99.90
10802;DHT22;5453;50.852;7.102;2023-01-31T13:05:35;8.50;99.90
10802;DHT22;5453;50.852;7.102;2023-01-31T13:08:15;8.90;99.90
10802;DHT22;5453;50.852;7.102;2023-01-31T13:10:52;9.00;99.90
10802;DHT22;5453;50.852;7.102;2023-01-31T13:13:30;9.00;99.90
10802;DHT22;5453;50.852;7.102;2023-01-31T13:16:11;9.50;99.90
10802;DHT22;5453;50.852;7.102;2023-01-31T13:18:48;9.60;99.90
10802;DHT22;5453;50.852;7.102;2023-01-31T13:21:27;9.50;99.90
10802;DHT22;5453;50.852;7.102;2023-01-31T13:24:03;9.30;99.90
10802;DHT22;5453;50.852;7.102;2023-01-31T13:26:43;9.10;99.90
10802;DHT22;5453;50.852;7.102;2023-01-31T13:29:19;9.00;99.90
10802;DHT22;5453;50.852;7.102;2023-01-31T13:31:59;8.90;99.90
10802;DHT22;5453;50.852;7.102;2023-01-31T13:34:40;8.80;99.90
10802;DHT22;5453;50.852;7.102;2023-01-31T13:37:16;8.70;99.90
10802;DHT22;5453;50.852;7.102;2023-01-31T13:39:53;8.90;99.90
10802;DHT22;5453;50.852;7.102;2023-01-31T13:42:27;9.50;99.90
10802;DHT22;5453;50.852;7.102;2023-01-31T13:45:05;9.60;99.90
10802;DHT22;5453;50.852;7.102;2023-01-31T13:47:46;9.40;99.90
10802;DHT22;5453;50.852;7.102;2023-01-31T13:50:31;9.10;99.90
10802;DHT22;5453;50.852;7.102;2023-01-31T13:53:14;8.90;99.90
10802;DHT22;5453;50.852;7.102;2023-01-31T13:55:48;8.70;99.90
10802;DHT22;5453;50.852;7.102;2023-01-31T13:58:22;8.60;99.90
10802;DHT22;5453;50.852;7.102;2023-01-31T14:01:00;8.50;99.90
10802;DHT22;5453;50.852;7.102;2023-01-31T14:07:13;8.40;99.90
10802;DHT22;5453;50.852;7.102;2023-01-31T14:13:38;8.30;99.90
10802;DHT22;5453;50.852;7.102;2023-01-31T14:16:36;8.30;99.90
10802;DHT22;5453;50.852;7.102;2023-01-31T14:20:01;8.20;99.90
10802;DHT22;5453;50.852;7.102;2023-01-31T14:22:36;8.10;99.90
10802;DHT22;5453;50.852;7.102;2023-01-31T14:25:12;8.10;99.90
10802;DHT22;5453;50.852;7.102;2023-01-31T14:28:00;8.10;99.90
10802;DHT22;5453;50.852;7.102;2023-01-31T14:30:43;8.00;99.90
10802;DHT22;5453;50.852;7.102;2023-01-31T14:33:20;8.00;99.90
10802;DHT22;5453;50.852;7.102;2023-01-31T14:36:33;8.00;99.90
10802;DHT22;5453;50.852;7.102;2023-01-31T14:39:36;7.90;99.90
10802;DHT22;5453;50.852;7.102;2023-01-31T14:42:33;7.90;99.90
10802;DHT22;5453;50.852;7.102;2023-01-31T14:45:48;7.90;99.90
10802;DHT22;5453;50.852;7.102;2023-01-31T14:48:51;7.90;99.90
10802;DHT22;5453;50.852;7.102;2023-01-31T14:51:57;7.90;99.90
10802;DHT22;5453;50.852;7.102;2023-01-31T14:54:53;7.90;99.90
10802;DHT22;5453;50.852;7.102;2023-01-31T14:57:37;7.90;99.90
10802;DHT22;5453;50.852;7.102;2023-01-31T15:00:21;7.90;99.90
10802;DHT22;5453;50.852;7.102;2023-01-31T15:03:05;7.80;99.90
10802;DHT22;5453;50.852;7.102;2023-01-31T15:05:41;7.80;99.90
10802;DHT22;5453;50.852;7.102;2023-01-31T15:08:40;7.80;99.90
10802;DHT22;5453;50.852;7.102;2023-01-31T15:11:40;7.80;99.90
10802;DHT22;5453;50.852;7.102;2023-01-31T15:14:25;7.80;99.90
10802;DHT22;5453;50.852;7.102;2023-01-31T15:17:05;7.80;99.90
10802;DHT22;5453;50.852;7.102;2023-01-31T15:19:43;7.80;99.90
10802;DHT22;5453;50.852;7.102;2023-01-31T15:22:20;7.80;99.90
10802;DHT22;5453;50.852;7.102;2023-01-31T15:24:54;7.80;99.90
10802;DHT22;5453;50.852;7.102;2023-01-31T15:27:31;7.80;99.90
10802;DHT22;5453;50.852;7.102;2023-01-31T15:30:14;7.80;99.90
10802;DHT22;5453;50.852;7.102;2023-01-31T15:32:54;7.70;99.90
10802;DHT22;5453;50.852;7.102;2023-01-31T15:35:30;7.70;99.90
10802;DHT22;5453;50.852;7.102;2023-01-31T15:38:19;7.70;99.90
10802;DHT22;5453;50.852;7.102;2023-01-31T15:41:06;7.70;99.90
10802;DHT22;5453;50.852;7.102;2023-01-31T15:43:54;7.70;99.90
10802;DHT22;5453;50.852;7.102;2023-01-31T15:46:29;7.70;99.90
10802;DHT22;5453;50.852;7.102;2023-01-31T15:49:16;7.70;99.90
10802;DHT22;5453;50.852;7.102;2023-01-31T15:52:04;7.70;99.90
10802;DHT22;5453;50.852;7.102;2023-01-31T15:54:57;7.70;99.90
10802;DHT22;5453;50.852;7.102;2023-01-31T15:57:38;7.70;99.90
10802;DHT22;5453;50.852;7.102;2023-01-31T16:00:18;7.70;99.90
10802;DHT22;5453;50.852;7.102;2023-01-31T16:02:51;7.60;99.90
10802;DHT22;5453;50.852;7.102;2023-01-31T16:05:33;7.60;99.90
10802;DHT22;5453;50.852;7.102;2023-01-31T16:08:20;7.60;99.90
10802;DHT22;5453;50.852;7.102;2023-01-31T16:10:55;7.50;99.90
10802;DHT22;5453;50.852;7.102;2023-01-31T16:13:29;7.50;99.90
10802;DHT22;5453;50.852;7.102;2023-01-31T16:16:03;7.60;99.90
10802;DHT22;5453;50.852;7.102;2023-01-31T16:18:36;7.50;99.90
10802;DHT22;5453;50.852;7.102;2023-01-31T16:21:21;7.50;99.90
10802;DHT22;5453;50.852;7.102;2023-01-31T16:23:57;7.50;99.90
10802;DHT22;5453;50.852;7.102;2023-01-31T16:26:33;7.50;99.90
10802;DHT22;5453;50.852;7.102;2023-01-31T16:29:09;7.50;99.90
10802;DHT22;5453;50.852;7.102;2023-01-31T16:31:48;7.50;99.90
10802;DHT22;5453;50.852;7.102;2023-01-31T16:34:24;7.50;99.90
10802;DHT22;5453;50.852;7.102;2023-01-31T16:37:01;7.50;99.90
10802;DHT22;5453;50.852;7.102;2023-01-31T16:39:38;7.50;99.90
10802;DHT22;5453;50.852;7.102;2023-01-31T16:42:22;7.50;99.90
10802;DHT22;5453;50.852;7.102;2023-01-31T16:44:55;7.50;99.90
10802;DHT22;5453;50.852;7.102;2023-01-31T16:47:33;7.50;99.90
10802;DHT22;5453;50.852;7.102;2023-01-31T16:50:30;7.50;99.90
10802;DHT22;5453;50.852;7.102;2023-01-31T16:53:25;7.50;99.90
10802;DHT22;5453;50.852;7.102;2023-01-31T16:56:21;7.50;99.90
10802;DHT22;5453;50.852;7.102;2023-01-31T16:58:54;7.50;99.90
10802;DHT22;5453;50.852;7.102;2023-01-31T17:01:29;7.40;99.90
10802;DHT22;5453;50.852;7.102;2023-01-31T17:04:11;7.50;99.90
10802;DHT22;5453;50.852;7.102;2023-01-31T17:06:49;7.50;99.90
10802;DHT22;5453;50.852;7.102;2023-01-31T17:09:23;7.50;99.90
10802;DHT22;5453;50.852;7.102;2023-01-31T17:11:56;7.50;99.90
10802;DHT22;5453;50.852;7.102;2023-01-31T17:14:29;7.50;99.90
10802;DHT22;5453;50.852;7.102;2023-01-31T17:17:08;7.60;99.90
10802;DHT22;5453;50.852;7.102;2023-01-31T17:19:41;7.60;99.90
10802;DHT22;5453;50.852;7.102;2023-01-31T17:22:13;7.50;99.90
10802;DHT22;5453;50.852;7.102;2023-01-31T17:24:47;7.60;99.90
10802;DHT22;5453;50.852;7.102;2023-01-31T17:27:20;7.60;99.90
10802;DHT22;5453;50.852;7.102;2023-01-31T17:29:52;7.60;99.90